Time;durP1;ratioP1;P1;durP2;ratioP2;P2;SDS_P1;SDS_P2;PMS_P1;PMS_P2;Temp;Humidity;BMP_temperature;BMP_pressure;BME280_temperature;BME280_humidity;BME280_pressure;Samples;Min_cycle;Max_cycle;Signal;HPM_P1;HPM_P2
2023/05/23 00:01:30;;;;;;;19.63;8.23;;;;;;;17.02;69.92;102161.38;5029392;28;20041;-49
2023/05/23 00:03:58;;;;;;;17.00;7.97;;;;;;;17.09;69.76;102163.19;5030606;28;20500;-44
2023/05/23 00:06:23;;;;;;;16.83;8.00;;;;;;;17.25;69.45;102161.56;5030382;28;20519;-44
2023/05/23 00:08:49;;;;;;;15.48;7.90;;;;;;;16.97;70.01;102160.47;5030653;28;20033;-46
2023/05/23 00:11:15;;;;;;;18.30;6.85;;;;;;;17.28;69.12;102157.19;5030288;28;20056;-47
2023/05/23 00:13:40;;;;;;;12.43;6.00;;;;;;;17.21;69.20;102162.41;5029981;28;20094;-44
2023/05/23 00:16:09;;;;;;;10.07;5.43;;;;;;;17.25;68.86;102157.19;5028362;28;20053;-45
2023/05/23 00:18:35;;;;;;;9.75;5.32;;;;;;;16.88;70.57;102165.69;5027937;28;20124;-47
2023/05/23 00:21:01;;;;;;;11.90;5.32;;;;;;;17.10;69.99;102162.34;5028744;28;20065;-44
2023/05/23 00:23:28;;;;;;;12.88;5.38;;;;;;;17.21;69.40;102167.66;5027888;28;20045;-45
2023/05/23 00:25:57;;;;;;;14.45;6.32;;;;;;;17.39;69.23;102167.78;5027612;28;20033;-50
2023/05/23 00:28:22;;;;;;;15.00;6.25;;;;;;;17.44;69.04;102172.22;5027551;28;20048;-48
2023/05/23 00:30:48;;;;;;;18.58;6.97;;;;;;;17.21;69.63;102172.94;5027992;28;20116;-47
2023/05/23 00:33:15;;;;;;;19.38;7.20;;;;;;;17.22;69.93;102162.41;5027266;28;20057;-44
2023/05/23 00:35:41;;;;;;;16.10;6.47;;;;;;;17.31;69.65;102174.78;5027793;28;20095;-49
2023/05/23 00:38:06;;;;;;;18.05;6.47;;;;;;;17.01;70.53;102178.97;5028179;28;20458;-48
2023/05/23 00:40:33;;;;;;;17.73;6.63;;;;;;;16.98;70.58;102184.22;5028209;28;20022;-47
2023/05/23 00:42:58;;;;;;;20.92;7.28;;;;;;;17.14;69.92;102179.91;5027325;28;20036;-43
2023/05/23 00:45:24;;;;;;;22.60;7.10;;;;;;;16.89;71.16;102178.00;5027767;28;20041;-44
2023/05/23 00:47:50;;;;;;;18.80;6.80;;;;;;;16.77;70.75;102184.00;5028189;28;20044;-48
2023/05/23 00:50:15;;;;;;;15.60;6.22;;;;;;;17.10;69.65;102179.91;5028091;28;20087;-46
2023/05/23 00:52:43;;;;;;;16.30;6.20;;;;;;;17.23;69.17;102180.00;5028079;28;20033;-48
2023/05/23 00:55:09;;;;;;;15.25;5.90;;;;;;;17.20;69.01;102174.69;5029469;28;20029;-47
2023/05/23 00:57:39;;;;;;;14.52;6.18;;;;;;;17.27;68.58;102170.34;5031863;28;20403;-45
2023/05/23 01:00:08;;;;;;;17.65;6.35;;;;;;;17.43;67.98;102177.50;5031454;28;20389;-44
2023/05/23 01:02:40;;;;;;;15.20;5.82;;;;;;;17.63;66.88;102181.13;5031733;28;20542;-49
2023/05/23 01:05:06;;;;;;;17.50;5.95;;;;;;;17.30;67.54;102173.03;5031883;28;20034;-47
2023/05/23 01:07:31;;;;;;;14.18;5.88;;;;;;;17.50;66.79;102176.66;5032502;28;20518;-44
2023/05/23 01:09:56;;;;;;;20.60;5.90;;;;;;;17.45;66.26;102176.63;5031262;28;20584;-44
2023/05/23 01:12:37;;;;;;;19.27;5.47;;;;;;;17.36;66.29;102173.94;5030857;28;20046;-45
2023/05/23 01:15:11;;;;;;;16.95;5.25;;;;;;;17.57;65.13;102174.91;5030825;28;20034;-47
2023/05/23 01:17:46;;;;;;;;;;;;;;;17.14;65.86;102177.28;5031207;28;20421;-45
2023/05/23 01:20:18;;;;;;;17.63;5.50;;;;;;;17.29;64.91;102180.03;5031255;28;20007;-44
2023/05/23 01:22:55;;;;;;;14.95;5.40;;;;;;;17.49;64.84;102180.16;5031000;28;20056;-45
2023/05/23 01:25:58;;;;;;;15.20;5.60;;;;;;;17.62;64.25;102183.78;5031399;28;20041;-45
2023/05/23 01:28:28;;;;;;;19.80;5.30;;;;;;;17.10;65.32;102198.34;5031833;28;20045;-45
2023/05/23 01:30:57;;;;;;;15.30;5.45;;;;;;;17.70;64.00;102193.50;5032060;28;20025;-45
2023/05/23 01:33:24;;;;;;;18.95;5.88;;;;;;;17.60;63.53;102185.50;5030109;28;20030;-46
2023/05/23 01:35:49;;;;;;;17.40;6.22;;;;;;;17.14;65.24;102195.72;5031131;28;20377;-49
2023/05/23 01:38:15;;;;;;;16.30;5.90;;;;;;;17.24;65.03;102194.06;5031272;28;20266;-49
2023/05/23 01:40:40;;;;;;;16.17;5.10;;;;;;;17.48;64.46;102190.69;5030787;28;20133;-46
2023/05/23 01:43:06;;;;;;;15.30;5.55;;;;;;;17.51;64.28;102188.94;5030044;28;20036;-48
2023/05/23 01:45:33;;;;;;;17.10;5.57;;;;;;;17.22;64.76;102193.16;5031211;28;20536;-47
2023/05/23 01:48:00;;;;;;;14.35;4.95;;;;;;;17.14;65.38;102192.25;5030591;28;20034;-46
2023/05/23 01:50:25;;;;;;;16.63;5.22;;;;;;;17.05;65.39;102185.16;5030517;28;20130;-46
2023/05/23 01:52:52;;;;;;;19.70;5.35;;;;;;;17.48;63.63;102183.69;5030426;28;20099;-46
2023/05/23 01:55:21;;;;;;;16.38;5.38;;;;;;;17.46;63.52;102190.69;5032306;28;20052;-46
2023/05/23 01:57:49;;;;;;;18.85;5.32;;;;;;;17.46;63.37;102193.31;5032635;28;20052;-47
2023/05/23 02:00:15;;;;;;;21.33;5.45;;;;;;;17.40;63.51;102188.91;5032183;28;20033;-48
2023/05/23 02:02:40;;;;;;;19.25;5.43;;;;;;;17.31;63.81;102203.78;5030834;28;20040;-46
2023/05/23 02:05:06;;;;;;;15.60;5.55;;;;;;;17.17;63.91;102193.13;5030322;28;20037;-45
2023/05/23 02:07:31;;;;;;;19.23;5.28;;;;;;;17.41;63.33;102195.94;5029434;28;20507;-44
2023/05/23 02:09:57;;;;;;;17.10;5.30;;;;;;;17.40;63.73;102193.28;5028495;28;20492;-45
2023/05/23 02:12:22;;;;;;;19.23;5.90;;;;;;;17.26;64.10;102202.88;5028725;28;20037;-49
2023/05/23 02:14:48;;;;;;;18.90;5.72;;;;;;;17.16;64.07;102198.38;5030307;28;20030;-49
2023/05/23 02:17:15;;;;;;;14.45;5.65;;;;;;;17.21;63.42;102202.81;5030071;28;20044;-46
2023/05/23 02:19:40;;;;;;;18.35;5.63;;;;;;;17.02;64.39;102208.81;5030385;28;20542;-45
2023/05/23 02:22:06;;;;;;;17.80;6.35;;;;;;;16.99;64.38;102227.25;5029521;28;20037;-45
2023/05/23 02:24:31;;;;;;;19.45;5.70;;;;;;;16.73;64.94;102221.75;5030373;28;20022;-48
2023/05/23 02:26:56;;;;;;;16.63;5.95;;;;;;;16.87;65.10;102217.50;5029651;28;20037;-45
2023/05/23 02:29:22;;;;;;;16.85;5.55;;;;;;;16.96;64.51;102225.47;5029710;28;20116;-49
2023/05/23 02:31:47;;;;;;;19.40;5.47;;;;;;;16.91;64.55;102229.81;5029401;28;20037;-46
2023/05/23 02:34:12;;;;;;;13.93;5.20;;;;;;;17.03;64.29;102229.91;5029763;28;20030;-49
2023/05/23 02:36:38;;;;;;;15.80;5.00;;;;;;;17.15;63.72;102220.34;5029678;28;20029;-49
2023/05/23 02:39:04;;;;;;;13.90;5.25;;;;;;;16.96;63.79;102222.81;5030446;28;20037;-46
2023/05/23 02:41:29;;;;;;;19.08;5.95;;;;;;;17.23;63.67;102227.44;5029605;28;20029;-45
2023/05/23 02:43:55;;;;;;;22.00;5.50;;;;;;;16.92;64.48;102233.31;5029776;28;20120;-46
2023/05/23 02:46:20;;;;;;;16.98;4.65;;;;;;;17.10;64.16;102241.38;5027824;28;20065;-46
2023/05/23 02:48:45;;;;;;;15.40;4.90;;;;;;;16.95;64.30;102236.00;5029667;28;20033;-46
2023/05/23 02:51:12;;;;;;;15.07;4.80;;;;;;;16.87;64.61;102238.56;5028228;28;20033;-44
2023/05/23 02:53:38;;;;;;;11.63;4.38;;;;;;;17.14;63.08;102237.91;5029144;28;20045;-42
2023/05/23 02:56:03;;;;;;;16.95;4.80;;;;;;;16.77;64.28;102252.50;5028823;28;20025;-44
2023/05/23 02:58:29;;;;;;;15.63;4.32;;;;;;;16.98;63.51;102257.09;5029316;28;20037;-44
2023/05/23 03:00:54;;;;;;;15.68;3.90;;;;;;;17.27;62.86;102247.66;5029382;28;20041;-45
2023/05/23 03:03:20;;;;;;;18.70;4.78;;;;;;;16.96;63.51;102243.00;5028984;28;20500;-47
2023/05/23 03:05:45;;;;;;;15.30;4.32;;;;;;;17.01;63.70;102246.59;5028699;28;20037;-47
2023/05/23 03:08:11;;;;;;;20.75;4.80;;;;;;;16.72;63.72;102251.56;5028922;28;20052;-46
2023/05/23 03:10:36;;;;;;;16.35;4.50;;;;;;;16.47;64.51;102257.41;5011745;28;20076;-46
2023/05/23 03:13:02;;;;;;;17.25;4.28;;;;;;;17.19;62.70;102252.03;5028697;28;20460;-47
2023/05/23 03:15:27;;;;;;;16.52;4.30;;;;;;;17.23;62.12;102248.53;5028699;28;20036;-45
2023/05/23 03:17:52;;;;;;;13.95;4.03;;;;;;;16.57;64.11;102254.03;5028457;28;20034;-44
2023/05/23 03:20:18;;;;;;;13.52;4.13;;;;;;;16.38;63.75;102246.78;5028675;28;20491;-44
2023/05/23 03:22:44;;;;;;;16.85;4.43;;;;;;;16.51;62.82;102257.47;5028180;28;20030;-46
2023/05/23 03:25:09;;;;;;;11.63;3.97;;;;;;;16.79;62.46;102263.06;5027366;28;20034;-46
2023/05/23 03:27:35;;;;;;;11.88;3.95;;;;;;;16.45;62.75;102254.78;5028436;28;20116;-48
2023/05/23 03:30:00;;;;;;;13.68;3.67;;;;;;;16.56;62.57;102257.53;5028962;28;20132;-47
2023/05/23 03:32:25;;;;;;;12.43;4.10;;;;;;;16.71;62.13;102259.47;5028156;28;20417;-46
2023/05/23 03:34:51;;;;;;;16.13;4.22;;;;;;;17.10;60.92;102265.09;5028276;28;20037;-46
2023/05/23 03:37:16;;;;;;;13.63;4.13;;;;;;;16.92;61.12;102263.19;5028339;28;20155;-46
2023/05/23 03:39:41;;;;;;;12.68;4.00;;;;;;;17.06;60.36;102265.97;5028463;28;20077;-47
2023/05/23 03:42:07;;;;;;;12.55;4.20;;;;;;;16.70;61.17;102270.88;5028327;28;20120;-49
2023/05/23 03:44:32;;;;;;;12.52;4.22;;;;;;;16.19;62.33;102264.09;5029294;28;20025;-43
2023/05/23 03:46:57;;;;;;;11.23;4.03;;;;;;;16.43;61.21;102274.94;5028529;28;20037;-46
2023/05/23 03:49:23;;;;;;;13.25;4.10;;;;;;;16.34;62.09;102285.38;5028224;28;20518;-45
2023/05/23 03:51:48;;;;;;;13.07;4.20;;;;;;;16.15;62.28;102276.34;5027862;28;20033;-44
2023/05/23 03:54:13;;;;;;;13.77;4.10;;;;;;;16.19;62.16;102277.25;5028359;28;20060;-48
2023/05/23 03:56:38;;;;;;;11.43;3.97;;;;;;;15.90;62.39;102286.53;5025997;28;20557;-44
2023/05/23 03:59:04;;;;;;;14.38;4.60;;;;;;;16.07;61.34;102279.72;5028762;28;20037;-49
2023/05/23 04:01:29;;;;;;;13.07;4.28;;;;;;;16.44;60.64;102284.59;5028024;28;20041;-45
2023/05/23 04:03:54;;;;;;;12.65;4.20;;;;;;;16.18;61.38;102275.50;5028042;28;20396;-45
2023/05/23 04:06:21;;;;;;;14.02;4.40;;;;;;;16.14;61.37;102290.38;5027862;28;20073;-48
2023/05/23 04:08:47;;;;;;;14.02;4.68;;;;;;;15.81;61.83;102301.28;5027016;28;20025;-46
2023/05/23 04:11:12;;;;;;;15.55;4.80;;;;;;;15.78;60.21;102308.28;5010200;28;20172;-52
2023/05/23 04:13:38;;;;;;;12.45;4.88;;;;;;;16.20;59.57;102293.06;5028106;28;20034;-44
2023/05/23 04:16:04;;;;;;;14.27;5.07;;;;;;;16.49;59.42;102297.81;5028483;28;20114;-45
2023/05/23 04:18:32;;;;;;;15.95;5.25;;;;;;;16.18;60.45;102304.44;5028666;28;20119;-44
2023/05/23 04:20:57;;;;;;;10.57;4.97;;;;;;;16.26;60.47;102305.44;5029021;28;20464;-46
2023/05/23 04:23:22;;;;;;;17.92;5.75;;;;;;;16.27;61.15;102304.56;5028435;28;20112;-48
2023/05/23 04:25:48;;;;;;;15.63;5.80;;;;;;;16.72;59.36;102317.41;5028398;28;20044;-44
2023/05/23 04:28:16;;;;;;;16.88;5.80;;;;;;;16.37;59.65;102303.81;5028217;28;20033;-51
2023/05/23 04:30:41;;;;;;;16.98;6.40;;;;;;;15.97;61.18;102317.31;5031440;28;20499;-47
2023/05/23 04:33:07;;;;;;;14.57;6.03;;;;;;;16.34;59.84;102310.78;5031807;28;20048;-44
2023/05/23 04:35:33;;;;;;;14.18;6.10;;;;;;;16.29;59.40;102315.09;5032583;28;20029;-45
2023/05/23 04:37:58;;;;;;;15.23;6.18;;;;;;;16.41;59.02;102317.88;5031761;28;20112;-44
2023/05/23 04:40:24;;;;;;;22.75;6.55;;;;;;;16.41;59.24;102320.50;5032320;28;20088;-50
2023/05/23 04:42:50;;;;;;;20.42;6.20;;;;;;;16.43;59.34;102324.94;5032140;28;20041;-47
2023/05/23 04:45:16;;;;;;;17.08;6.22;;;;;;;16.21;59.82;102329.06;5032204;28;20034;-44
2023/05/23 04:47:43;;;;;;;17.02;6.65;;;;;;;16.19;59.82;102336.03;5031483;28;20025;-45
2023/05/23 04:50:09;;;;;;;16.95;6.75;;;;;;;16.31;58.75;102322.16;5031579;28;20400;-45
2023/05/23 04:52:35;;;;;;;16.90;6.53;;;;;;;16.26;58.98;102325.59;5031259;28;20048;-46
2023/05/23 04:55:00;;;;;;;19.38;6.63;;;;;;;16.32;58.14;102334.44;5031607;28;20030;-46
2023/05/23 04:57:26;;;;;;;14.77;6.25;;;;;;;16.27;58.37;102340.53;5031546;28;20036;-48
2023/05/23 04:59:51;;;;;;;16.77;6.75;;;;;;;16.32;58.90;102337.09;5031433;28;20629;-45
2023/05/23 05:02:17;;;;;;;20.80;7.05;;;;;;;15.98;58.83;102348.03;5031236;28;20388;-48
2023/05/23 05:04:42;;;;;;;15.10;6.38;;;;;;;16.22;58.04;102346.59;5031012;28;20026;-50
2023/05/23 05:07:08;;;;;;;16.65;6.50;;;;;;;16.17;58.81;102352.66;5031119;28;20531;-43
2023/05/23 05:09:33;;;;;;;16.85;6.10;;;;;;;16.66;57.71;102350.69;5031758;28;20112;-50
2023/05/23 05:11:59;;;;;;;14.57;6.38;;;;;;;16.24;58.34;102358.03;5030387;28;20183;-46
2023/05/23 05:14:26;;;;;;;18.48;6.82;;;;;;;15.89;59.21;102361.00;5029986;28;20038;-46
2023/05/23 05:16:53;;;;;;;18.88;6.03;;;;;;;15.92;58.93;102363.72;5028209;28;20500;-47
2023/05/23 05:19:18;;;;;;;16.75;6.25;;;;;;;16.57;57.38;102356.72;5030488;28;20530;-47
2023/05/23 05:21:44;;;;;;;20.08;6.05;;;;;;;16.69;56.47;102363.91;5031024;28;20026;-48
2023/05/23 05:24:09;;;;;;;19.10;6.30;;;;;;;16.43;56.86;102361.78;5031152;28;20068;-45
2023/05/23 05:26:35;;;;;;;14.98;6.10;;;;;;;16.54;56.85;102365.44;5031151;28;20084;-47
2023/05/23 05:29:01;;;;;;;15.85;6.25;;;;;;;16.64;57.13;102369.13;5031325;28;20037;-45
2023/05/23 05:31:26;;;;;;;17.50;6.30;;;;;;;16.32;58.16;102365.16;5029513;28;20021;-45
2023/05/23 05:33:52;;;;;;;16.02;5.60;;;;;;;16.33;57.99;102369.56;5029549;28;20037;-48
2023/05/23 05:36:18;;;;;;;16.92;6.20;;;;;;;16.12;58.72;102372.75;5030692;28;20029;-45
2023/05/23 05:38:44;;;;;;;12.18;4.53;;;;;;;16.43;58.31;102377.59;5030575;28;20030;-46
2023/05/23 05:41:10;;;;;;;14.32;4.95;;;;;;;16.45;58.46;102365.34;5030070;28;20037;-44
2023/05/23 05:43:35;;;;;;;13.52;4.90;;;;;;;16.58;57.99;102383.06;5031201;28;20120;-45
2023/05/23 05:46:00;;;;;;;16.42;5.10;;;;;;;16.49;58.36;102371.50;5032068;28;20033;-45
2023/05/23 05:48:25;;;;;;;12.02;4.38;;;;;;;16.42;59.08;102383.72;5030414;28;20423;-47
2023/05/23 05:50:51;;;;;;;8.85;4.10;;;;;;;16.62;58.88;102370.84;5030307;28;20048;-47
2023/05/23 05:53:16;;;;;;;10.18;4.07;;;;;;;16.65;59.07;102383.19;5029859;28;20088;-49
2023/05/23 05:55:41;;;;;;;12.90;4.47;;;;;;;16.38;60.41;102383.66;5030076;28;20060;-47
2023/05/23 05:58:07;;;;;;;12.68;4.00;;;;;;;15.77;62.23;102388.00;5030319;28;20461;-44
2023/05/23 06:00:34;;;;;;;11.15;3.70;;;;;;;16.38;60.47;102379.28;5030919;28;20037;-44
2023/05/23 06:02:59;;;;;;;9.00;3.67;;;;;;;16.49;60.67;102384.69;5028808;28;20025;-47
2023/05/23 06:05:25;;;;;;;8.65;3.20;;;;;;;16.11;61.72;102392.91;5030395;28;20119;-47
2023/05/23 06:07:51;;;;;;;9.70;3.20;;;;;;;16.27;61.01;102385.25;5030057;28;20041;-45
2023/05/23 06:10:16;;;;;;;8.88;3.08;;;;;;;15.93;62.13;102392.63;5030536;28;20034;-46
2023/05/23 06:12:42;;;;;;;8.43;3.30;;;;;;;16.31;61.28;102393.22;5029754;28;20571;-52
2023/05/23 06:15:08;;;;;;;7.20;2.35;;;;;;;16.34;60.76;102397.66;5030012;28;20571;-45
2023/05/23 06:17:34;;;;;;;8.45;2.78;;;;;;;16.43;60.31;102403.91;5030474;28;20123;-46
2023/05/23 06:19:59;;;;;;;6.40;2.47;;;;;;;16.23;61.75;102410.63;5030100;28;20117;-48
2023/05/23 06:22:25;;;;;;;8.05;2.65;;;;;;;16.14;61.91;102406.13;5029642;28;20491;-45
2023/05/23 06:24:50;;;;;;;10.13;2.58;;;;;;;16.13;61.55;102411.38;5029525;28;20033;-46
2023/05/23 06:27:15;;;;;;;9.25;2.13;;;;;;;16.21;61.17;102410.63;5029606;28;20037;-45
2023/05/23 06:29:41;;;;;;;8.10;2.22;;;;;;;15.80;62.38;102414.34;5029578;28;20087;-49
2023/05/23 06:32:06;;;;;;;7.28;2.35;;;;;;;15.80;61.77;102420.50;5028999;28;20047;-44
2023/05/23 06:34:31;;;;;;;8.50;2.22;;;;;;;16.08;60.64;102416.56;5029988;28;20032;-44
2023/05/23 06:36:57;;;;;;;10.73;2.40;;;;;;;16.25;59.93;102424.72;5029208;28;20037;-44
2023/05/23 06:39:22;;;;;;;8.77;2.30;;;;;;;15.88;60.51;102418.00;5029513;28;20057;-45
2023/05/23 06:41:47;;;;;;;7.60;2.05;;;;;;;16.27;59.99;102415.09;5029041;28;20080;-49
2023/05/23 06:44:13;;;;;;;9.13;2.40;;;;;;;16.42;58.36;102406.50;5030755;28;20030;-46
2023/05/23 06:46:39;;;;;;;9.90;2.58;;;;;;;16.56;57.80;102411.13;5031083;28;20128;-47
2023/05/23 06:49:04;;;;;;;8.10;2.22;;;;;;;16.91;55.65;102411.56;5031821;28;20553;-45
2023/05/23 06:51:30;;;;;;;9.93;2.50;;;;;;;17.79;52.74;102408.97;5029229;28;20045;-44
2023/05/23 06:53:55;;;;;;;8.57;2.40;;;;;;;18.15;49.89;102403.97;5029085;28;20468;-48
2023/05/23 06:56:22;;;;;;;13.15;2.85;;;;;;;18.27;48.29;102418.13;5029385;28;20056;-45
2023/05/23 06:58:47;;;;;;;9.52;2.47;;;;;;;18.87;46.65;102409.63;5029083;28;20061;-45
2023/05/23 07:01:13;;;;;;;13.55;2.65;;;;;;;18.82;46.67;102414.03;5028933;28;20064;-46
2023/05/23 07:03:40;;;;;;;16.65;3.25;;;;;;;19.05;45.47;102426.44;5029661;28;20069;-45
2023/05/23 07:06:06;;;;;;;15.68;2.70;;;;;;;18.80;46.34;102414.00;5029347;28;20033;-44
2023/05/23 07:08:31;;;;;;;19.75;3.03;;;;;;;19.12;45.01;102427.34;5029702;28;20415;-44
2023/05/23 07:10:57;;;;;;;10.88;2.60;;;;;;;19.74;44.36;102421.31;5029191;28;20029;-48
2023/05/23 07:13:22;;;;;;;13.15;3.08;;;;;;;19.83;44.57;102430.13;5010471;28;20076;-43
2023/05/23 07:15:47;;;;;;;14.07;2.80;;;;;;;20.88;41.92;102421.94;5025532;28;20613;-45
2023/05/23 07:18:13;;;;;;;10.45;2.65;;;;;;;21.68;40.26;102422.38;5025061;28;20048;-45
2023/05/23 07:20:38;;;;;;;15.23;2.83;;;;;;;21.22;39.52;102419.16;5027384;28;20032;-44
2023/05/23 07:23:03;;;;;;;16.35;2.85;;;;;;;21.99;39.02;102434.53;5027626;28;20036;-49
2023/05/23 07:25:28;;;;;;;18.48;2.90;;;;;;;21.35;39.27;102434.09;5028106;28;20061;-45
2023/05/23 07:27:54;;;;;;;12.73;2.70;;;;;;;20.67;40.76;102441.47;5028234;28;20134;-46
2023/05/23 07:30:21;;;;;;;15.50;3.05;;;;;;;19.61;43.28;102446.00;5028296;28;20041;-46
2023/05/23 07:32:47;;;;;;;12.98;2.83;;;;;;;19.82;42.92;102444.22;5027799;28;20041;-47
2023/05/23 07:35:13;;;;;;;13.18;2.75;;;;;;;19.56;43.95;102447.75;5026352;28;20037;-44
2023/05/23 07:37:39;;;;;;;17.27;3.40;;;;;;;18.21;47.24;102448.00;5027748;28;20052;-47
2023/05/23 07:40:05;;;;;;;16.63;3.20;;;;;;;18.94;45.68;102451.06;5028032;28;20037;-51
2023/05/23 07:42:30;;;;;;;17.00;3.30;;;;;;;18.93;46.02;102444.00;5027486;28;20511;-48
2023/05/23 07:44:55;;;;;;;18.27;3.40;;;;;;;18.10;47.83;102457.59;5027432;28;20049;-47
2023/05/23 07:47:21;;;;;;;13.73;3.10;;;;;;;18.58;47.24;102450.03;5027793;28;20083;-47
2023/05/23 07:49:46;;;;;;;22.30;3.58;;;;;;;17.95;48.00;102446.91;5027683;28;20033;-47
2023/05/23 07:52:11;;;;;;;17.42;3.50;;;;;;;18.47;47.43;102453.47;5027625;28;20042;-44
2023/05/23 07:54:37;;;;;;;17.83;3.58;;;;;;;18.76;45.92;102451.00;5027985;28;20036;-47
2023/05/23 07:57:02;;;;;;;14.60;3.00;;;;;;;19.12;44.28;102456.44;5028377;28;20036;-44
2023/05/23 07:59:29;;;;;;;14.13;3.10;;;;;;;19.48;43.77;102453.03;5027256;28;20495;-45
2023/05/23 08:01:54;;;;;;;15.27;3.05;;;;;;;19.77;42.08;102448.63;5025687;28;20037;-46
2023/05/23 08:04:20;;;;;;;14.70;3.10;;;;;;;20.23;42.71;102456.56;5027161;28;20036;-46
2023/05/23 08:06:48;;;;;;;14.25;3.15;;;;;;;20.90;41.09;102456.41;5026602;28;20116;-48
2023/05/23 08:09:14;;;;;;;13.80;3.30;;;;;;;21.11;41.58;102458.06;5027188;28;20033;-48
2023/05/23 08:11:39;;;;;;;13.23;2.97;;;;;;;20.55;42.36;102460.06;5027682;28;20049;-50
2023/05/23 08:14:05;;;;;;;16.98;3.45;;;;;;;19.84;43.51;102468.06;5027864;28;20033;-47
2023/05/23 08:16:30;;;;;;;16.90;3.50;;;;;;;19.35;44.56;102472.34;5028317;28;20095;-43
2023/05/23 08:18:55;;;;;;;20.15;3.40;;;;;;;19.35;45.23;102477.63;5027351;28;20056;-44
2023/05/23 08:21:21;;;;;;;15.68;3.70;;;;;;;19.95;43.97;102479.50;5027689;28;20049;-44
2023/05/23 08:23:47;;;;;;;16.13;3.47;;;;;;;19.76;42.64;102475.97;5029361;28;20026;-49
2023/05/23 08:26:12;;;;;;;17.70;3.85;;;;;;;19.28;43.93;102482.03;5028617;28;20044;-47
2023/05/23 08:28:37;;;;;;;17.40;3.90;;;;;;;19.17;44.38;102478.47;5027762;28;20556;-45
2023/05/23 08:31:02;;;;;;;15.90;3.10;;;;;;;19.43;44.46;102481.19;5028348;28;20117;-47
2023/05/23 08:33:28;;;;;;;16.83;3.35;;;;;;;19.22;43.88;102482.00;5027471;28;20033;-43
2023/05/23 08:35:53;;;;;;;17.90;3.78;;;;;;;18.85;44.62;102480.97;5025452;28;20036;-44
2023/05/23 08:38:20;;;;;;;13.05;3.30;;;;;;;19.96;43.52;102475.09;5009997;28;20030;-51
2023/05/23 08:40:51;;;;;;;18.67;3.45;;;;;;;19.65;43.87;102484.78;5028237;28;20452;-46
2023/05/23 08:43:16;;;;;;;19.50;3.80;;;;;;;19.93;43.90;102480.41;5027998;28;20053;-45
2023/05/23 08:45:42;;;;;;;21.98;4.22;;;;;;;19.40;45.03;102478.53;5028444;28;20585;-46
2023/05/23 08:48:12;;;;;;;18.88;3.85;;;;;;;18.82;45.26;102478.34;5028153;28;20033;-46
2023/05/23 08:50:39;;;;;;;17.25;3.70;;;;;;;19.29;44.37;102477.63;5028052;28;20044;-49
2023/05/23 08:53:07;;;;;;;16.08;3.35;;;;;;;18.69;45.25;102483.53;5027912;28;20107;-47
2023/05/23 08:55:33;;;;;;;18.40;3.75;;;;;;;19.11;44.72;102480.22;5027598;28;20040;-47
2023/05/23 08:58:02;;;;;;;17.30;3.75;;;;;;;18.90;45.02;102481.03;5027288;28;20404;-45
2023/05/23 09:00:28;;;;;;;16.02;3.65;;;;;;;19.43;44.39;102483.84;5027498;28;20057;-45
2023/05/23 09:02:54;;;;;;;14.55;3.22;;;;;;;19.03;44.72;102496.03;5026794;28;20041;-45
2023/05/23 09:05:20;;;;;;;16.90;3.40;;;;;;;18.67;44.31;102483.53;5026440;28;20041;-46
2023/05/23 09:07:46;;;;;;;15.10;3.20;;;;;;;18.98;44.13;102485.44;5008711;28;20060;-48
2023/05/23 09:10:15;;;;;;;15.55;3.20;;;;;;;17.95;46.81;102499.69;5027187;28;20521;-45
2023/05/23 09:12:42;;;;;;;16.80;3.95;;;;;;;18.10;45.90;102489.28;5027201;28;20041;-45
2023/05/23 09:15:08;;;;;;;13.80;3.88;;;;;;;18.54;45.54;102502.81;5026402;28;20487;-44
2023/05/23 09:17:35;;;;;;;12.38;3.25;;;;;;;18.94;44.20;102499.53;5031718;28;20446;-44
2023/05/23 09:20:00;;;;;;;12.57;3.22;;;;;;;19.50;43.43;102517.41;5031462;28;20484;-44
2023/05/23 09:22:27;;;;;;;15.65;3.50;;;;;;;19.09;43.34;102503.97;5031264;28;20040;-47
2023/05/23 09:24:54;;;;;;;16.60;3.28;;;;;;;19.82;42.83;102514.81;5031294;28;20033;-44
2023/05/23 09:27:20;;;;;;;18.55;3.70;;;;;;;20.34;43.38;102514.84;5031671;28;20033;-46
2023/05/23 09:29:46;;;;;;;12.85;3.22;;;;;;;20.55;42.17;102520.13;5034903;28;20025;-47
2023/05/23 09:32:16;;;;;;;12.85;3.10;;;;;;;19.53;43.51;102524.44;5033073;28;20041;-48
2023/05/23 09:34:55;;;;;;;18.25;3.70;;;;;;;18.95;44.94;102521.56;5029883;28;20037;-46
2023/05/23 09:37:23;;;;;;;14.75;3.20;;;;;;;18.42;44.51;102523.84;5031286;28;20037;-44
2023/05/23 09:39:49;;;;;;;19.08;3.50;;;;;;;18.73;44.37;102533.75;5029715;28;20029;-47
2023/05/23 09:42:19;;;;;;;15.98;3.30;;;;;;;19.48;44.94;102519.16;5030272;28;20022;-46
2023/05/23 09:44:45;;;;;;;20.95;3.38;;;;;;;18.24;46.37;102529.84;5030609;28;20057;-49
2023/05/23 09:47:10;;;;;;;17.58;3.58;;;;;;;18.89;45.75;102522.41;5030330;28;20060;-47
2023/05/23 09:49:38;;;;;;;13.00;3.53;;;;;;;18.72;45.78;102524.09;5030763;28;20041;-44
2023/05/23 09:52:04;;;;;;;15.43;3.20;;;;;;;19.26;44.97;102518.19;5030854;28;20128;-46
2023/05/23 09:54:29;;;;;;;15.82;3.38;;;;;;;18.86;45.29;102521.50;5030450;28;20112;-45
2023/05/23 09:56:59;;;;;;;20.63;3.30;;;;;;;19.15;45.62;102529.59;5030736;28;20045;-46
2023/05/23 09:59:47;;;;;;;12.85;3.30;;;;;;;19.33;44.72;102549.03;5033667;28;20041;-44
2023/05/23 10:02:15;;;;;;;12.60;3.38;;;;;;;19.34;42.18;102539.34;5021813;28;20399;-44
2023/05/23 10:04:42;;;;;;;12.77;3.15;;;;;;;19.47;43.12;102535.00;5032546;28;20030;-47
2023/05/23 10:07:16;;;;;;;14.75;3.38;;;;;;;18.90;42.73;102540.03;5030884;28;20029;-46
2023/05/23 10:09:44;;;;;;;15.77;3.28;;;;;;;18.90;42.82;102540.03;5031558;28;20033;-48
2023/05/23 10:12:31;;;;;;;16.27;3.33;;;;;;;18.88;42.35;102543.53;5032774;28;20068;-47
2023/05/23 10:15:01;;;;;;;12.00;2.60;;;;;;;18.70;41.92;102543.44;5030425;28;20492;-45
2023/05/23 10:17:56;;;;;;;11.00;2.92;;;;;;;18.93;41.47;102547.97;5029580;28;20057;-47
2023/05/23 10:20:24;;;;;;;12.98;3.00;;;;;;;19.47;41.19;102541.19;5028980;28;20041;-44
2023/05/23 10:22:50;;;;;;;12.07;2.95;;;;;;;19.23;41.78;102549.00;5029932;28;20025;-47
2023/05/23 10:25:16;;;;;;;14.40;2.95;;;;;;;19.77;42.09;102541.25;5031200;28;20120;-49
2023/05/23 10:27:42;;;;;;;13.43;3.00;;;;;;;19.80;42.41;102551.88;5031091;28;20117;-45
2023/05/23 10:30:08;;;;;;;16.77;3.30;;;;;;;18.93;43.69;102555.03;5013545;28;20038;-45
2023/05/23 10:32:35;;;;;;;13.60;2.90;;;;;;;19.16;42.13;102552.47;5031091;28;20526;-44
2023/05/23 10:35:15;;;;;;;19.73;3.20;;;;;;;19.50;43.91;102554.44;5029861;28;20068;-42
2023/05/23 10:38:03;;;;;;;17.05;3.00;;;;;;;19.75;44.12;102560.69;5029493;28;20034;-49
2023/05/23 10:40:42;;;;;;;15.40;3.28;;;;;;;19.64;44.14;102559.78;5029843;28;20557;-49
2023/05/23 10:43:28;;;;;;;16.58;3.58;;;;;;;20.21;43.14;102557.19;5028970;28;20546;-48
2023/05/23 10:45:53;;;;;;;15.02;2.83;;;;;;;19.56;43.26;102551.81;5029091;28;20552;-52
2023/05/23 10:48:33;;;;;;;17.17;3.25;;;;;;;19.73;43.59;102558.03;5029101;28;20144;-49
2023/05/23 10:51:07;;;;;;;15.90;3.10;;;;;;;19.75;42.34;102566.88;5029100;28;20033;-49
2023/05/23 10:53:38;;;;;;;15.70;3.30;;;;;;;19.42;42.73;102548.19;5028004;28;20041;-50
2023/05/23 10:56:09;;;;;;;17.52;3.50;;;;;;;18.84;45.58;102570.84;5028140;28;20064;-46
2023/05/23 10:58:35;;;;;;;16.20;3.53;;;;;;;19.53;43.10;102554.44;5029122;28;20033;-46
2023/05/23 11:01:04;;;;;;;18.48;3.20;;;;;;;19.38;42.98;102570.22;5029229;28;20064;-44
2023/05/23 11:03:47;;;;;;;12.00;2.83;;;;;;;20.10;41.07;102564.25;5028731;28;20041;-47
2023/05/23 11:06:28;;;;;;;13.00;3.20;;;;;;;20.03;42.59;102570.44;5028693;28;20037;-45
2023/05/23 11:09:11;;;;;;;14.15;2.95;;;;;;;20.17;40.34;102566.03;5028931;28;20029;-46
2023/05/23 11:12:04;;;;;;;14.93;3.05;;;;;;;19.85;41.39;102566.00;5028090;28;20030;-46
2023/05/23 11:14:32;;;;;;;11.48;2.53;;;;;;;20.49;40.49;102555.44;5028782;28;20399;-47
2023/05/23 11:17:15;;;;;;;14.32;3.03;;;;;;;19.29;43.19;102549.03;5028675;28;20033;-47
2023/05/23 11:20:08;;;;;;;11.60;2.85;;;;;;;19.56;43.96;102554.47;5028377;28;20096;-49